Bookmark and Share
Track history (hours):
 

Ocean Celebrity

Last reported at 2014-Apr-14 16:32 UTC. Time now 2014-Apr-21 10:08 UTC.
Position N 26°59' E 123°16'.

Length 289 m; draft 13.7 m.

Type: Cargo ship. MMSI: 356712000.

NotesDate/timePositionNaut miles runAvg speedWind from/ knotsBaromVisibWave heightAir tempDewpointWater temp
2014-Apr-14 16:32N 26°59' E 123°16'55911.4
2014-Apr-12 15:33N 35°59' E 120°29'1010.2
2014-Apr-12 14:33N 36°02' E 120°17'3 0.3
2014-Apr-12 06:19N 36°02' E 120°14'0 0.0
2014-Apr-12 05:13N 36°02' E 120°14'0 0.0
2014-Apr-11 22:31N 36°02' E 120°14'0 0.0
2014-Apr-11 20:31N 36°02' E 120°14'0 0.0
2014-Apr-11 13:25N 36°02' E 120°14'0 0.0
2014-Apr-11 12:13N 36°02' E 120°14'0 0.0
2014-Apr-11 11:07N 36°02' E 120°14'0 0.0
2014-Apr-11 07:31N 36°02' E 120°14'0 0.0
2014-Apr-11 01:31N 36°02' E 120°14'3 3.5
2014-Apr-11 00:33N 36°02' E 120°18'6 6.3
2014-Apr-10 23:33N 35°57' E 120°23'1 1.2
2014-Apr-10 22:28N 35°57' E 120°25'0 0.1
2014-Apr-10 21:28N 35°57' E 120°25'0 0.1
2014-Apr-10 20:28N 35°57' E 120°25'0 0.1
2014-Apr-10 19:28N 35°57' E 120°24'0 0.0
2014-Apr-10 18:28N 35°57' E 120°24'0 0.0
2014-Apr-10 17:28N 35°57' E 120°24'0 0.1
2014-Apr-10 16:28N 35°57' E 120°24'0 0.0
2014-Apr-10 15:28N 35°57' E 120°24'0 0.0
2014-Apr-10 14:28N 35°57' E 120°24'0 0.1
2014-Apr-10 13:28N 35°57' E 120°25'0 0.2
2014-Apr-10 12:28N 35°57' E 120°25'0 0.1
2014-Apr-10 11:28N 35°57' E 120°25'0 0.1
2014-Apr-10 10:28N 35°57' E 120°25'2 1.7
2014-Apr-10 09:33N 35°57' E 120°27'5 4.9
2014-Apr-10 08:33N 35°60' E 120°32'9 8.6
2014-Apr-10 07:28N 35°58' E 120°43'58 3.7
2014-Apr-09 15:33N 35°02' E 120°21'1211.1
2014-Apr-09 14:27N 34°59' E 120°07'1011.0
2014-Apr-09 13:33N 34°56' E 119°56'9 8.7
2014-Apr-09 12:31N 34°52' E 119°46'8 8.6
2014-Apr-09 11:32N 34°47' E 119°37'9 9.1
2014-Apr-09 10:33N 34°45' E 119°27'1 1.0
2014-Apr-09 09:30N 34°45' E 119°25'0 0.0
2014-Apr-09 08:32N 34°45' E 119°25'0 0.0
2014-Apr-09 07:29N 34°45' E 119°25'0 0.0
2014-Apr-09 06:29N 34°45' E 119°25'0 0.0
2014-Apr-09 05:32N 34°45' E 119°25'0 0.0
2014-Apr-09 04:29N 34°45' E 119°25'0 0.0
2014-Apr-09 03:32N 34°45' E 119°25'0 0.0
2014-Apr-09 02:32N 34°45' E 119°25'0 0.0
2014-Apr-09 01:32N 34°45' E 119°25'0 0.0
2014-Apr-09 00:29N 34°45' E 119°25'0 0.0
2014-Apr-08 23:29N 34°45' E 119°25'0 0.0
2014-Apr-08 22:33N 34°45' E 119°25'0 0.0
2014-Apr-08 21:33N 34°45' E 119°25'0 0.0
2014-Apr-08 20:33N 34°45' E 119°25'0 0.0
2014-Apr-08 19:29N 34°45' E 119°25'0 0.0
2014-Apr-08 18:29N 34°45' E 119°25'0 0.0
2014-Apr-08 17:33N 34°45' E 119°25'0 0.0
2014-Apr-08 16:33N 34°45' E 119°25'0 0.0
2014-Apr-08 15:27N 34°45' E 119°25'0 0.0
2014-Apr-08 14:33N 34°45' E 119°25'0 0.0
2014-Apr-08 13:33N 34°45' E 119°25'0 0.0
2014-Apr-08 12:33N 34°45' E 119°25'0 0.0
2014-Apr-08 11:33N 34°45' E 119°25'0 0.0
2014-Apr-08 10:33N 34°45' E 119°25'0 0.0
2014-Apr-08 09:33N 34°45' E 119°25'0 0.0
2014-Apr-08 08:33N 34°45' E 119°25'0 0.0
2014-Apr-08 07:33N 34°45' E 119°25'0 0.0
2014-Apr-08 06:33N 34°45' E 119°25'0 0.0
2014-Apr-08 05:33N 34°45' E 119°25'0 0.0
2014-Apr-08 04:29N 34°45' E 119°25'0 0.0
2014-Apr-08 03:33N 34°45' E 119°25'0 0.0
2014-Apr-08 02:33N 34°45' E 119°25'0 0.0
2014-Apr-08 01:29N 34°45' E 119°25'0 0.0
2014-Apr-08 00:23N 34°45' E 119°25'0 0.0
2014-Apr-07 23:29N 34°45' E 119°25'0 0.0
2014-Apr-07 22:33N 34°45' E 119°25'0 0.0
2014-Apr-07 21:30N 34°45' E 119°25'0 0.0
2014-Apr-07 20:33N 34°45' E 119°25'0 0.0
2014-Apr-07 19:33N 34°45' E 119°25'0 0.0
2014-Apr-07 17:29N 34°45' E 119°25'0 0.0
2014-Apr-07 16:32N 34°45' E 119°25'0 0.0
2014-Apr-07 15:32N 34°45' E 119°25'0 0.0
2014-Apr-07 14:32N 34°45' E 119°25'0 0.0
2014-Apr-07 13:29N 34°45' E 119°25'0 0.0
2014-Apr-07 12:32N 34°45' E 119°25'0 0.0
2014-Apr-07 11:32N 34°45' E 119°25'0 0.0
2014-Apr-07 10:32N 34°45' E 119°25'0 0.0
2014-Apr-07 09:29N 34°45' E 119°25'0 0.0
2014-Apr-07 08:29N 34°45' E 119°25'0 0.0
2014-Apr-07 07:32N 34°45' E 119°25'0 0.0
2014-Apr-07 06:29N 34°45' E 119°25'0 0.0
2014-Apr-07 05:32N 34°45' E 119°25'0 0.0
2014-Apr-07 04:29N 34°45' E 119°25'0 0.0
2014-Apr-07 03:33N 34°45' E 119°25'4 3.8
2014-Apr-07 02:34N 34°44' E 119°30'1010.2
2014-Apr-07 01:33N 34°49' E 119°41'9 9.2
2014-Apr-07 00:33N 34°52' E 119°51'6 6.3
2014-Apr-06 23:34N 34°54' E 119°59'0 0.4
2014-Apr-06 22:31N 34°54' E 119°59'0 0.1
2014-Apr-06 21:04N 34°54' E 119°59'0 0.1
2014-Apr-06 20:28N 34°54' E 119°59'0 0.1
2014-Apr-06 19:10N 34°54' E 119°59'0 0.0
2014-Apr-06 18:16N 34°54' E 119°59'0 0.0
2014-Apr-06 17:16N 34°54' E 119°59'0 0.0
2014-Apr-06 16:28N 34°54' E 119°59'0 0.1
2014-Apr-06 15:28N 34°54' E 119°59'0 0.1
2014-Apr-06 14:28N 34°54' E 119°59'0 0.1
2014-Apr-06 13:22N 34°54' E 119°59'0 0.1
2014-Apr-06 11:28N 34°54' E 119°59'0 0.1
2014-Apr-06 06:32N 34°54' E 119°59'0 0.0
2014-Apr-06 03:26N 34°54' E 119°59'0 0.1
2014-Apr-06 02:20N 34°54' E 119°59'0 0.1
2014-Apr-06 01:26N 34°54' E 119°59'0 0.1
2014-Apr-06 00:32N 34°54' E 119°59'0 0.1
2014-Apr-05 20:26N 34°54' E 119°59'0 0.1
2014-Apr-05 19:32N 34°54' E 119°59'0 0.0
2014-Apr-05 18:08N 34°54' E 119°60'0 0.0
2014-Apr-05 17:08N 34°54' E 119°60'0 0.0
2014-Apr-05 16:32N 34°54' E 119°60'0 0.1
2014-Apr-05 15:26N 34°54' E 119°60'0 0.2
2014-Apr-05 14:16N 34°54' E 119°59'4 6.0
2014-Apr-05 13:33N 34°56' E 120°04'  

Dump ship's entire track history

sailing weather and tide predictions

Ocean Celebrity — HOSZ — position and weather